sensor_id;sensor_type;location;lat;lon;timestamp;P1;durP1;ratioP1;P2;durP2;ratioP2
32295;SDS011;18781;51.550;5.418;2023-05-29T00:02:12;21.35;;;6.90;;
32295;SDS011;18781;51.550;5.418;2023-05-29T00:04:37;21.88;;;6.78;;
32295;SDS011;18781;51.550;5.418;2023-05-29T00:07:04;23.15;;;6.85;;
32295;SDS011;18781;51.550;5.418;2023-05-29T00:09:30;27.27;;;6.60;;
32295;SDS011;18781;51.550;5.418;2023-05-29T00:11:55;23.33;;;6.05;;
32295;SDS011;18781;51.550;5.418;2023-05-29T00:14:21;25.98;;;6.15;;
32295;SDS011;18781;51.550;5.418;2023-05-29T00:16:48;27.13;;;6.25;;
32295;SDS011;18781;51.550;5.418;2023-05-29T00:19:15;22.33;;;6.07;;
32295;SDS011;18781;51.550;5.418;2023-05-29T00:21:46;25.40;;;6.28;;
32295;SDS011;18781;51.550;5.418;2023-05-29T00:24:14;16.30;;;5.47;;
32295;SDS011;18781;51.550;5.418;2023-05-29T00:26:40;18.10;;;6.55;;
32295;SDS011;18781;51.550;5.418;2023-05-29T00:29:06;18.92;;;5.65;;
32295;SDS011;18781;51.550;5.418;2023-05-29T00:31:31;27.70;;;5.78;;
32295;SDS011;18781;51.550;5.418;2023-05-29T00:33:57;18.42;;;5.18;;
32295;SDS011;18781;51.550;5.418;2023-05-29T00:36:23;21.52;;;4.93;;
32295;SDS011;18781;51.550;5.418;2023-05-29T00:38:50;19.98;;;5.03;;
32295;SDS011;18781;51.550;5.418;2023-05-29T00:41:16;20.50;;;4.70;;
32295;SDS011;18781;51.550;5.418;2023-05-29T00:43:42;24.55;;;4.68;;
32295;SDS011;18781;51.550;5.418;2023-05-29T00:46:09;18.65;;;5.13;;
32295;SDS011;18781;51.550;5.418;2023-05-29T00:48:36;21.92;;;4.63;;
32295;SDS011;18781;51.550;5.418;2023-05-29T00:51:02;22.02;;;4.65;;
32295;SDS011;18781;51.550;5.418;2023-05-29T00:53:28;19.95;;;4.80;;
32295;SDS011;18781;51.550;5.418;2023-05-29T00:55:53;20.20;;;4.75;;
32295;SDS011;18781;51.550;5.418;2023-05-29T00:58:20;27.63;;;5.13;;
32295;SDS011;18781;51.550;5.418;2023-05-29T01:00:49;24.50;;;5.10;;
32295;SDS011;18781;51.550;5.418;2023-05-29T01:03:15;19.45;;;4.35;;
32295;SDS011;18781;51.550;5.418;2023-05-29T01:05:42;21.48;;;4.60;;
32295;SDS011;18781;51.550;5.418;2023-05-29T01:08:07;18.92;;;4.57;;
32295;SDS011;18781;51.550;5.418;2023-05-29T01:10:34;27.42;;;4.85;;
32295;SDS011;18781;51.550;5.418;2023-05-29T01:13:03;22.48;;;4.50;;
32295;SDS011;18781;51.550;5.418;2023-05-29T01:18:41;21.48;;;4.07;;
32295;SDS011;18781;51.550;5.418;2023-05-29T01:24:10;22.83;;;4.10;;
32295;SDS011;18781;51.550;5.418;2023-05-29T01:26:58;27.85;;;4.82;;
32295;SDS011;18781;51.550;5.418;2023-05-29T01:29:29;24.85;;;5.13;;
32295;SDS011;18781;51.550;5.418;2023-05-29T01:31:57;27.38;;;5.00;;
32295;SDS011;18781;51.550;5.418;2023-05-29T01:34:23;37.42;;;4.72;;
32295;SDS011;18781;51.550;5.418;2023-05-29T01:36:49;30.50;;;5.25;;
32295;SDS011;18781;51.550;5.418;2023-05-29T01:39:15;24.20;;;4.78;;
32295;SDS011;18781;51.550;5.418;2023-05-29T01:41:42;27.88;;;5.15;;
32295;SDS011;18781;51.550;5.418;2023-05-29T01:44:09;27.38;;;5.20;;
32295;SDS011;18781;51.550;5.418;2023-05-29T01:46:42;27.42;;;4.80;;
32295;SDS011;18781;51.550;5.418;2023-05-29T01:49:08;39.22;;;4.78;;
32295;SDS011;18781;51.550;5.418;2023-05-29T01:51:36;20.67;;;4.07;;
32295;SDS011;18781;51.550;5.418;2023-05-29T01:54:02;28.35;;;4.88;;
32295;SDS011;18781;51.550;5.418;2023-05-29T01:56:28;27.05;;;4.85;;
32295;SDS011;18781;51.550;5.418;2023-05-29T01:58:55;20.33;;;4.85;;
32295;SDS011;18781;51.550;5.418;2023-05-29T02:01:22;26.48;;;5.00;;
32295;SDS011;18781;51.550;5.418;2023-05-29T02:03:48;24.30;;;4.47;;
32295;SDS011;18781;51.550;5.418;2023-05-29T02:06:13;23.17;;;4.63;;
32295;SDS011;18781;51.550;5.418;2023-05-29T02:08:40;22.60;;;4.50;;
32295;SDS011;18781;51.550;5.418;2023-05-29T02:11:05;28.00;;;4.45;;
32295;SDS011;18781;51.550;5.418;2023-05-29T02:13:31;22.02;;;4.15;;
32295;SDS011;18781;51.550;5.418;2023-05-29T02:15:57;29.60;;;4.85;;
32295;SDS011;18781;51.550;5.418;2023-05-29T02:18:22;22.25;;;4.10;;
32295;SDS011;18781;51.550;5.418;2023-05-29T02:20:48;30.05;;;5.07;;
32295;SDS011;18781;51.550;5.418;2023-05-29T02:23:14;22.40;;;4.57;;
32295;SDS011;18781;51.550;5.418;2023-05-29T02:25:40;23.27;;;4.03;;
32295;SDS011;18781;51.550;5.418;2023-05-29T02:28:06;26.90;;;4.55;;
32295;SDS011;18781;51.550;5.418;2023-05-29T02:30:32;22.42;;;4.05;;
32295;SDS011;18781;51.550;5.418;2023-05-29T02:32:58;20.17;;;4.43;;
32295;SDS011;18781;51.550;5.418;2023-05-29T02:35:23;27.58;;;5.32;;
32295;SDS011;18781;51.550;5.418;2023-05-29T02:37:49;24.90;;;4.78;;
32295;SDS011;18781;51.550;5.418;2023-05-29T02:40:15;23.90;;;4.20;;
32295;SDS011;18781;51.550;5.418;2023-05-29T02:42:42;25.20;;;4.25;;
32295;SDS011;18781;51.550;5.418;2023-05-29T02:45:08;26.00;;;4.60;;
32295;SDS011;18781;51.550;5.418;2023-05-29T02:47:34;22.05;;;4.60;;
32295;SDS011;18781;51.550;5.418;2023-05-29T02:50:00;22.52;;;3.80;;
32295;SDS011;18781;51.550;5.418;2023-05-29T02:52:25;19.60;;;4.10;;
32295;SDS011;18781;51.550;5.418;2023-05-29T02:54:52;29.70;;;4.15;;
32295;SDS011;18781;51.550;5.418;2023-05-29T02:57:19;23.85;;;4.57;;
32295;SDS011;18781;51.550;5.418;2023-05-29T02:59:45;27.73;;;4.45;;
32295;SDS011;18781;51.550;5.418;2023-05-29T03:02:11;31.92;;;5.32;;
32295;SDS011;18781;51.550;5.418;2023-05-29T03:04:36;20.45;;;4.15;;
32295;SDS011;18781;51.550;5.418;2023-05-29T03:07:02;27.80;;;4.30;;
32295;SDS011;18781;51.550;5.418;2023-05-29T03:09:28;28.83;;;4.43;;
32295;SDS011;18781;51.550;5.418;2023-05-29T03:11:53;21.20;;;4.60;;
32295;SDS011;18781;51.550;5.418;2023-05-29T03:14:19;20.70;;;3.70;;
32295;SDS011;18781;51.550;5.418;2023-05-29T03:16:46;21.13;;;4.30;;
32295;SDS011;18781;51.550;5.418;2023-05-29T03:19:12;29.73;;;4.18;;
32295;SDS011;18781;51.550;5.418;2023-05-29T03:21:38;23.45;;;4.40;;
32295;SDS011;18781;51.550;5.418;2023-05-29T03:24:03;24.92;;;4.35;;
32295;SDS011;18781;51.550;5.418;2023-05-29T03:26:29;23.65;;;4.47;;
32295;SDS011;18781;51.550;5.418;2023-05-29T03:28:55;28.40;;;4.28;;
32295;SDS011;18781;51.550;5.418;2023-05-29T03:31:21;22.55;;;4.10;;
32295;SDS011;18781;51.550;5.418;2023-05-29T03:33:47;19.30;;;3.85;;
32295;SDS011;18781;51.550;5.418;2023-05-29T03:36:14;28.70;;;4.60;;
32295;SDS011;18781;51.550;5.418;2023-05-29T03:38:41;28.55;;;4.93;;
32295;SDS011;18781;51.550;5.418;2023-05-29T03:41:07;31.63;;;5.40;;
32295;SDS011;18781;51.550;5.418;2023-05-29T03:43:33;29.15;;;4.18;;
32295;SDS011;18781;51.550;5.418;2023-05-29T03:45:58;36.58;;;4.70;;
32295;SDS011;18781;51.550;5.418;2023-05-29T03:48:24;30.42;;;4.47;;
32295;SDS011;18781;51.550;5.418;2023-05-29T03:50:50;26.48;;;4.60;;
32295;SDS011;18781;51.550;5.418;2023-05-29T03:53:15;26.17;;;4.15;;
32295;SDS011;18781;51.550;5.418;2023-05-29T03:55:41;26.13;;;4.75;;
32295;SDS011;18781;51.550;5.418;2023-05-29T03:58:06;27.02;;;4.88;;
32295;SDS011;18781;51.550;5.418;2023-05-29T04:00:32;21.45;;;4.13;;
32295;SDS011;18781;51.550;5.418;2023-05-29T04:02:57;25.73;;;4.20;;
32295;SDS011;18781;51.550;5.418;2023-05-29T04:05:23;28.10;;;4.68;;
32295;SDS011;18781;51.550;5.418;2023-05-29T04:07:48;32.03;;;5.10;;
32295;SDS011;18781;51.550;5.418;2023-05-29T04:10:14;29.15;;;4.50;;
32295;SDS011;18781;51.550;5.418;2023-05-29T04:12:40;27.70;;;4.75;;
32295;SDS011;18781;51.550;5.418;2023-05-29T04:15:06;27.35;;;5.10;;
32295;SDS011;18781;51.550;5.418;2023-05-29T04:17:32;24.23;;;5.38;;
32295;SDS011;18781;51.550;5.418;2023-05-29T04:19:58;29.67;;;4.28;;
32295;SDS011;18781;51.550;5.418;2023-05-29T04:22:24;37.15;;;5.35;;
32295;SDS011;18781;51.550;5.418;2023-05-29T04:24:50;27.50;;;4.78;;
32295;SDS011;18781;51.550;5.418;2023-05-29T04:27:15;31.67;;;4.38;;
32295;SDS011;18781;51.550;5.418;2023-05-29T04:29:41;27.00;;;4.40;;
32295;SDS011;18781;51.550;5.418;2023-05-29T04:32:07;26.42;;;4.68;;
32295;SDS011;18781;51.550;5.418;2023-05-29T04:34:34;35.53;;;5.13;;
32295;SDS011;18781;51.550;5.418;2023-05-29T04:37:01;26.63;;;4.15;;
32295;SDS011;18781;51.550;5.418;2023-05-29T04:39:28;23.73;;;4.22;;
32295;SDS011;18781;51.550;5.418;2023-05-29T04:41:53;42.33;;;4.70;;
32295;SDS011;18781;51.550;5.418;2023-05-29T04:44:21;32.47;;;4.28;;
32295;SDS011;18781;51.550;5.418;2023-05-29T04:46:47;30.70;;;4.60;;
32295;SDS011;18781;51.550;5.418;2023-05-29T04:49:13;28.88;;;3.97;;
32295;SDS011;18781;51.550;5.418;2023-05-29T04:51:39;33.60;;;4.32;;
32295;SDS011;18781;51.550;5.418;2023-05-29T04:54:07;21.23;;;3.88;;
32295;SDS011;18781;51.550;5.418;2023-05-29T04:56:36;27.23;;;4.47;;
32295;SDS011;18781;51.550;5.418;2023-05-29T04:59:02;30.35;;;4.72;;
32295;SDS011;18781;51.550;5.418;2023-05-29T05:01:28;33.75;;;4.88;;
32295;SDS011;18781;51.550;5.418;2023-05-29T05:03:54;28.98;;;4.25;;
32295;SDS011;18781;51.550;5.418;2023-05-29T05:06:22;26.20;;;4.15;;
32295;SDS011;18781;51.550;5.418;2023-05-29T05:08:50;32.53;;;4.55;;
32295;SDS011;18781;51.550;5.418;2023-05-29T05:11:16;24.45;;;3.90;;
32295;SDS011;18781;51.550;5.418;2023-05-29T05:13:46;27.27;;;4.20;;
32295;SDS011;18781;51.550;5.418;2023-05-29T05:16:12;29.83;;;4.90;;
32295;SDS011;18781;51.550;5.418;2023-05-29T05:18:38;33.42;;;5.03;;
32295;SDS011;18781;51.550;5.418;2023-05-29T05:21:03;25.10;;;3.90;;
32295;SDS011;18781;51.550;5.418;2023-05-29T05:23:30;24.42;;;4.13;;
32295;SDS011;18781;51.550;5.418;2023-05-29T05:25:55;24.88;;;4.20;;
32295;SDS011;18781;51.550;5.418;2023-05-29T05:28:21;30.60;;;4.28;;
32295;SDS011;18781;51.550;5.418;2023-05-29T05:30:46;29.52;;;4.10;;
32295;SDS011;18781;51.550;5.418;2023-05-29T05:33:12;29.52;;;4.85;;
32295;SDS011;18781;51.550;5.418;2023-05-29T05:35:38;33.35;;;4.97;;
32295;SDS011;18781;51.550;5.418;2023-05-29T05:38:04;34.17;;;5.13;;
32295;SDS011;18781;51.550;5.418;2023-05-29T05:40:29;32.60;;;5.57;;
32295;SDS011;18781;51.550;5.418;2023-05-29T05:42:56;28.40;;;4.35;;
32295;SDS011;18781;51.550;5.418;2023-05-29T05:45:22;32.22;;;4.47;;
32295;SDS011;18781;51.550;5.418;2023-05-29T05:47:47;26.80;;;4.53;;
32295;SDS011;18781;51.550;5.418;2023-05-29T05:50:13;36.85;;;4.82;;
32295;SDS011;18781;51.550;5.418;2023-05-29T05:52:38;29.38;;;5.20;;
32295;SDS011;18781;51.550;5.418;2023-05-29T05:55:04;22.67;;;4.10;;
32295;SDS011;18781;51.550;5.418;2023-05-29T05:57:30;27.60;;;4.57;;
32295;SDS011;18781;51.550;5.418;2023-05-29T05:59:58;28.45;;;4.47;;
32295;SDS011;18781;51.550;5.418;2023-05-29T06:02:36;32.47;;;4.97;;
32295;SDS011;18781;51.550;5.418;2023-05-29T06:05:02;26.77;;;3.97;;
32295;SDS011;18781;51.550;5.418;2023-05-29T06:07:32;34.35;;;5.10;;
32295;SDS011;18781;51.550;5.418;2023-05-29T06:09:57;32.55;;;4.35;;
32295;SDS011;18781;51.550;5.418;2023-05-29T06:12:23;28.70;;;4.60;;
32295;SDS011;18781;51.550;5.418;2023-05-29T06:14:49;31.40;;;4.35;;
32295;SDS011;18781;51.550;5.418;2023-05-29T06:17:15;32.70;;;5.40;;
32295;SDS011;18781;51.550;5.418;2023-05-29T06:19:41;25.15;;;4.25;;
32295;SDS011;18781;51.550;5.418;2023-05-29T06:22:06;28.92;;;4.88;;
32295;SDS011;18781;51.550;5.418;2023-05-29T06:24:32;37.42;;;4.97;;
32295;SDS011;18781;51.550;5.418;2023-05-29T06:26:58;28.42;;;4.65;;
32295;SDS011;18781;51.550;5.418;2023-05-29T06:29:23;22.63;;;3.85;;
32295;SDS011;18781;51.550;5.418;2023-05-29T06:31:49;38.80;;;4.95;;
32295;SDS011;18781;51.550;5.418;2023-05-29T06:34:14;27.35;;;4.05;;
32295;SDS011;18781;51.550;5.418;2023-05-29T06:36:40;31.98;;;4.70;;
32295;SDS011;18781;51.550;5.418;2023-05-29T06:39:06;29.13;;;4.22;;
32295;SDS011;18781;51.550;5.418;2023-05-29T06:41:32;33.67;;;4.53;;
32295;SDS011;18781;51.550;5.418;2023-05-29T06:43:58;29.30;;;4.07;;
32295;SDS011;18781;51.550;5.418;2023-05-29T06:46:23;29.33;;;4.15;;
32295;SDS011;18781;51.550;5.418;2023-05-29T06:48:49;31.08;;;4.53;;
32295;SDS011;18781;51.550;5.418;2023-05-29T06:51:15;31.63;;;4.35;;
32295;SDS011;18781;51.550;5.418;2023-05-29T06:53:42;23.63;;;3.50;;
32295;SDS011;18781;51.550;5.418;2023-05-29T06:56:08;26.00;;;4.60;;
32295;SDS011;18781;51.550;5.418;2023-05-29T06:58:33;29.35;;;4.05;;
32295;SDS011;18781;51.550;5.418;2023-05-29T07:00:59;23.27;;;3.83;;
32295;SDS011;18781;51.550;5.418;2023-05-29T07:03:25;33.38;;;4.28;;
32295;SDS011;18781;51.550;5.418;2023-05-29T07:05:51;27.33;;;4.20;;
32295;SDS011;18781;51.550;5.418;2023-05-29T07:08:17;18.80;;;3.95;;
32295;SDS011;18781;51.550;5.418;2023-05-29T07:10:43;29.00;;;4.20;;
32295;SDS011;18781;51.550;5.418;2023-05-29T07:13:09;23.60;;;3.95;;
32295;SDS011;18781;51.550;5.418;2023-05-29T07:15:34;24.52;;;4.22;;
32295;SDS011;18781;51.550;5.418;2023-05-29T07:18:02;17.02;;;4.15;;
32295;SDS011;18781;51.550;5.418;2023-05-29T07:20:27;21.83;;;3.72;;
32295;SDS011;18781;51.550;5.418;2023-05-29T07:22:53;20.20;;;4.18;;
32295;SDS011;18781;51.550;5.418;2023-05-29T07:25:18;36.10;;;4.38;;
32295;SDS011;18781;51.550;5.418;2023-05-29T07:27:44;28.15;;;4.35;;
32295;SDS011;18781;51.550;5.418;2023-05-29T07:30:10;27.98;;;4.45;;
32295;SDS011;18781;51.550;5.418;2023-05-29T07:32:35;26.85;;;4.38;;
32295;SDS011;18781;51.550;5.418;2023-05-29T07:35:01;17.67;;;3.55;;
32295;SDS011;18781;51.550;5.418;2023-05-29T07:37:27;26.40;;;4.20;;
32295;SDS011;18781;51.550;5.418;2023-05-29T07:39:54;32.38;;;4.43;;
32295;SDS011;18781;51.550;5.418;2023-05-29T07:42:20;22.42;;;3.75;;
32295;SDS011;18781;51.550;5.418;2023-05-29T07:44:45;18.08;;;3.55;;
32295;SDS011;18781;51.550;5.418;2023-05-29T07:47:12;24.65;;;4.38;;
32295;SDS011;18781;51.550;5.418;2023-05-29T07:49:38;25.92;;;3.80;;
32295;SDS011;18781;51.550;5.418;2023-05-29T07:52:04;30.55;;;4.25;;
32295;SDS011;18781;51.550;5.418;2023-05-29T07:54:30;21.88;;;3.90;;
32295;SDS011;18781;51.550;5.418;2023-05-29T07:56:58;25.65;;;4.43;;
32295;SDS011;18781;51.550;5.418;2023-05-29T07:59:24;20.88;;;4.30;;
32295;SDS011;18781;51.550;5.418;2023-05-29T08:01:50;25.90;;;3.88;;
32295;SDS011;18781;51.550;5.418;2023-05-29T08:04:16;23.02;;;3.95;;
32295;SDS011;18781;51.550;5.418;2023-05-29T08:06:42;21.45;;;4.07;;
32295;SDS011;18781;51.550;5.418;2023-05-29T08:09:08;22.58;;;3.72;;
32295;SDS011;18781;51.550;5.418;2023-05-29T08:11:35;19.92;;;3.40;;
32295;SDS011;18781;51.550;5.418;2023-05-29T08:14:01;29.67;;;3.83;;
32295;SDS011;18781;51.550;5.418;2023-05-29T08:16:27;24.38;;;4.28;;
32295;SDS011;18781;51.550;5.418;2023-05-29T08:18:52;26.20;;;4.25;;
32295;SDS011;18781;51.550;5.418;2023-05-29T08:21:18;19.33;;;3.75;;
32295;SDS011;18781;51.550;5.418;2023-05-29T08:23:44;31.33;;;4.03;;
32295;SDS011;18781;51.550;5.418;2023-05-29T08:26:10;24.58;;;4.32;;
32295;SDS011;18781;51.550;5.418;2023-05-29T08:28:36;27.08;;;4.13;;
32295;SDS011;18781;51.550;5.418;2023-05-29T08:31:02;24.70;;;3.42;;
32295;SDS011;18781;51.550;5.418;2023-05-29T08:33:27;23.92;;;3.75;;
32295;SDS011;18781;51.550;5.418;2023-05-29T08:35:54;21.60;;;3.30;;
32295;SDS011;18781;51.550;5.418;2023-05-29T08:38:22;21.48;;;3.92;;
32295;SDS011;18781;51.550;5.418;2023-05-29T08:40:50;28.23;;;3.80;;
32295;SDS011;18781;51.550;5.418;2023-05-29T08:43:17;21.45;;;4.07;;
32295;SDS011;18781;51.550;5.418;2023-05-29T08:45:47;23.35;;;3.95;;
32295;SDS011;18781;51.550;5.418;2023-05-29T08:48:16;25.90;;;5.10;;
32295;SDS011;18781;51.550;5.418;2023-05-29T08:50:44;19.35;;;3.80;;
32295;SDS011;18781;51.550;5.418;2023-05-29T08:53:12;20.25;;;3.80;;
32295;SDS011;18781;51.550;5.418;2023-05-29T08:55:38;16.10;;;3.63;;
32295;SDS011;18781;51.550;5.418;2023-05-29T08:58:05;19.38;;;4.35;;
32295;SDS011;18781;51.550;5.418;2023-05-29T09:00:31;22.98;;;4.28;;
32295;SDS011;18781;51.550;5.418;2023-05-29T09:02:57;35.35;;;4.28;;
32295;SDS011;18781;51.550;5.418;2023-05-29T09:05:24;21.85;;;3.42;;
32295;SDS011;18781;51.550;5.418;2023-05-29T09:07:52;31.48;;;3.85;;
32295;SDS011;18781;51.550;5.418;2023-05-29T09:10:18;22.23;;;3.33;;
32295;SDS011;18781;51.550;5.418;2023-05-29T09:12:46;15.77;;;3.95;;
32295;SDS011;18781;51.550;5.418;2023-05-29T09:15:18;15.65;;;3.65;;
32295;SDS011;18781;51.550;5.418;2023-05-29T09:17:55;26.48;;;3.70;;
32295;SDS011;18781;51.550;5.418;2023-05-29T09:20:22;18.83;;;3.25;;
32295;SDS011;18781;51.550;5.418;2023-05-29T09:22:55;15.05;;;3.60;;
32295;SDS011;18781;51.550;5.418;2023-05-29T09:25:29;18.80;;;3.50;;
32295;SDS011;18781;51.550;5.418;2023-05-29T09:28:00;22.02;;;4.00;;
32295;SDS011;18781;51.550;5.418;2023-05-29T09:31:01;18.70;;;3.67;;
32295;SDS011;18781;51.550;5.418;2023-05-29T09:33:21;19.48;;;3.60;;
32295;SDS011;18781;51.550;5.418;2023-05-29T09:35:47;22.48;;;3.63;;
32295;SDS011;18781;51.550;5.418;2023-05-29T09:38:14;19.27;;;3.67;;
32295;SDS011;18781;51.550;5.418;2023-05-29T09:40:44;15.77;;;3.75;;
32295;SDS011;18781;51.550;5.418;2023-05-29T09:43:15;19.10;;;3.50;;
32295;SDS011;18781;51.550;5.418;2023-05-29T09:45:43;19.77;;;4.05;;
32295;SDS011;18781;51.550;5.418;2023-05-29T09:48:14;17.92;;;4.07;;
32295;SDS011;18781;51.550;5.418;2023-05-29T09:50:47;22.25;;;4.50;;
32295;SDS011;18781;51.550;5.418;2023-05-29T09:53:16;16.47;;;3.70;;
32295;SDS011;18781;51.550;5.418;2023-05-29T09:55:48;19.10;;;3.75;;
32295;SDS011;18781;51.550;5.418;2023-05-29T09:58:15;23.30;;;3.80;;
32295;SDS011;18781;51.550;5.418;2023-05-29T10:00:43;21.00;;;4.38;;
32295;SDS011;18781;51.550;5.418;2023-05-29T10:03:09;19.95;;;4.15;;
32295;SDS011;18781;51.550;5.418;2023-05-29T10:05:37;15.05;;;3.40;;
32295;SDS011;18781;51.550;5.418;2023-05-29T10:08:04;19.13;;;3.72;;
32295;SDS011;18781;51.550;5.418;2023-05-29T10:10:33;11.43;;;3.70;;
32295;SDS011;18781;51.550;5.418;2023-05-29T10:13:01;17.20;;;3.42;;
32295;SDS011;18781;51.550;5.418;2023-05-29T10:15:28;23.45;;;4.18;;
32295;SDS011;18781;51.550;5.418;2023-05-29T10:17:57;15.37;;;3.53;;
32295;SDS011;18781;51.550;5.418;2023-05-29T10:20:27;20.33;;;4.38;;
32295;SDS011;18781;51.550;5.418;2023-05-29T10:22:54;21.45;;;4.00;;
32295;SDS011;18781;51.550;5.418;2023-05-29T10:25:21;14.35;;;3.47;;
32295;SDS011;18781;51.550;5.418;2023-05-29T10:27:49;17.40;;;4.00;;
32295;SDS011;18781;51.550;5.418;2023-05-29T10:33:03;19.05;;;4.00;;
32295;SDS011;18781;51.550;5.418;2023-05-29T10:36:10;15.40;;;3.35;;
32295;SDS011;18781;51.550;5.418;2023-05-29T10:38:46;9.77;;;3.38;;
32295;SDS011;18781;51.550;5.418;2023-05-29T10:43:53;16.40;;;3.35;;
32295;SDS011;18781;51.550;5.418;2023-05-29T10:46:19;16.70;;;3.58;;
32295;SDS011;18781;51.550;5.418;2023-05-29T10:48:44;19.02;;;4.28;;
32295;SDS011;18781;51.550;5.418;2023-05-29T10:51:26;15.50;;;3.90;;
32295;SDS011;18781;51.550;5.418;2023-05-29T10:53:53;15.38;;;3.38;;
32295;SDS011;18781;51.550;5.418;2023-05-29T10:56:23;16.67;;;4.00;;
32295;SDS011;18781;51.550;5.418;2023-05-29T10:58:54;9.07;;;3.17;;
32295;SDS011;18781;51.550;5.418;2023-05-29T11:01:22;16.92;;;4.03;;
32295;SDS011;18781;51.550;5.418;2023-05-29T11:03:49;18.45;;;4.28;;
32295;SDS011;18781;51.550;5.418;2023-05-29T11:06:18;19.35;;;3.67;;
32295;SDS011;18781;51.550;5.418;2023-05-29T11:08:55;27.33;;;4.43;;
32295;SDS011;18781;51.550;5.418;2023-05-29T11:13:55;17.55;;;3.60;;
32295;SDS011;18781;51.550;5.418;2023-05-29T11:18:51;14.63;;;3.65;;
32295;SDS011;18781;51.550;5.418;2023-05-29T11:23:57;15.27;;;3.63;;
32295;SDS011;18781;51.550;5.418;2023-05-29T11:26:25;16.73;;;3.60;;
32295;SDS011;18781;51.550;5.418;2023-05-29T11:28:51;17.52;;;4.18;;
32295;SDS011;18781;51.550;5.418;2023-05-29T11:31:17;18.65;;;4.57;;
32295;SDS011;18781;51.550;5.418;2023-05-29T11:33:47;22.73;;;4.10;;
32295;SDS011;18781;51.550;5.418;2023-05-29T11:38:40;15.57;;;3.75;;
32295;SDS011;18781;51.550;5.418;2023-05-29T11:41:06;19.05;;;3.50;;
32295;SDS011;18781;51.550;5.418;2023-05-29T11:43:33;15.60;;;3.40;;
32295;SDS011;18781;51.550;5.418;2023-05-29T11:45:59;15.80;;;3.70;;
32295;SDS011;18781;51.550;5.418;2023-05-29T11:48:25;13.82;;;3.60;;
32295;SDS011;18781;51.550;5.418;2023-05-29T11:50:50;18.75;;;4.07;;
32295;SDS011;18781;51.550;5.418;2023-05-29T11:53:16;15.00;;;3.67;;
32295;SDS011;18781;51.550;5.418;2023-05-29T11:55:42;18.73;;;4.10;;
32295;SDS011;18781;51.550;5.418;2023-05-29T11:58:08;12.77;;;4.00;;
32295;SDS011;18781;51.550;5.418;2023-05-29T12:00:34;21.90;;;3.50;;
32295;SDS011;18781;51.550;5.418;2023-05-29T12:03:01;11.35;;;3.45;;
32295;SDS011;18781;51.550;5.418;2023-05-29T12:05:32;13.32;;;3.15;;
32295;SDS011;18781;51.550;5.418;2023-05-29T12:08:08;15.88;;;3.75;;
32295;SDS011;18781;51.550;5.418;2023-05-29T12:10:34;15.15;;;3.60;;
32295;SDS011;18781;51.550;5.418;2023-05-29T12:13:00;12.02;;;3.42;;
32295;SDS011;18781;51.550;5.418;2023-05-29T12:15:26;9.70;;;3.40;;
32295;SDS011;18781;51.550;5.418;2023-05-29T12:17:52;12.60;;;3.60;;
32295;SDS011;18781;51.550;5.418;2023-05-29T12:20:19;22.20;;;4.32;;
32295;SDS011;18781;51.550;5.418;2023-05-29T12:22:46;17.20;;;4.07;;
32295;SDS011;18781;51.550;5.418;2023-05-29T12:25:13;14.77;;;3.63;;
32295;SDS011;18781;51.550;5.418;2023-05-29T12:27:45;15.55;;;3.80;;
32295;SDS011;18781;51.550;5.418;2023-05-29T12:30:19;13.00;;;3.38;;
32295;SDS011;18781;51.550;5.418;2023-05-29T12:32:49;12.38;;;3.50;;
32295;SDS011;18781;51.550;5.418;2023-05-29T12:40:48;12.52;;;3.33;;
32295;SDS011;18781;51.550;5.418;2023-05-29T12:43:14;13.27;;;3.30;;
32295;SDS011;18781;51.550;5.418;2023-05-29T12:45:41;9.98;;;3.15;;
32295;SDS011;18781;51.550;5.418;2023-05-29T12:48:07;14.38;;;3.20;;
32295;SDS011;18781;51.550;5.418;2023-05-29T12:50:38;12.77;;;3.35;;
32295;SDS011;18781;51.550;5.418;2023-05-29T12:53:11;14.98;;;2.95;;
32295;SDS011;18781;51.550;5.418;2023-05-29T12:55:39;15.93;;;3.38;;
32295;SDS011;18781;51.550;5.418;2023-05-29T12:58:10;18.75;;;4.18;;
32295;SDS011;18781;51.550;5.418;2023-05-29T13:00:41;12.60;;;3.58;;
32295;SDS011;18781;51.550;5.418;2023-05-29T13:03:08;17.35;;;3.42;;
32295;SDS011;18781;51.550;5.418;2023-05-29T13:05:35;13.02;;;3.63;;
32295;SDS011;18781;51.550;5.418;2023-05-29T13:08:01;12.60;;;3.25;;
32295;SDS011;18781;51.550;5.418;2023-05-29T13:10:29;18.58;;;4.07;;
32295;SDS011;18781;51.550;5.418;2023-05-29T13:12:55;16.55;;;3.50;;
32295;SDS011;18781;51.550;5.418;2023-05-29T13:15:23;16.20;;;3.80;;
32295;SDS011;18781;51.550;5.418;2023-05-29T13:17:50;15.20;;;3.70;;
32295;SDS011;18781;51.550;5.418;2023-05-29T13:20:18;19.35;;;3.92;;
32295;SDS011;18781;51.550;5.418;2023-05-29T13:22:45;13.30;;;3.55;;
32295;SDS011;18781;51.550;5.418;2023-05-29T13:25:14;12.23;;;3.47;;
32295;SDS011;18781;51.550;5.418;2023-05-29T13:27:42;17.35;;;4.15;;
32295;SDS011;18781;51.550;5.418;2023-05-29T13:30:09;16.70;;;3.78;;
32295;SDS011;18781;51.550;5.418;2023-05-29T13:32:35;15.90;;;3.80;;
32295;SDS011;18781;51.550;5.418;2023-05-29T13:35:01;17.05;;;4.15;;
32295;SDS011;18781;51.550;5.418;2023-05-29T13:37:28;15.15;;;3.85;;
32295;SDS011;18781;51.550;5.418;2023-05-29T13:39:53;15.50;;;4.10;;
32295;SDS011;18781;51.550;5.418;2023-05-29T13:42:19;16.98;;;3.83;;
32295;SDS011;18781;51.550;5.418;2023-05-29T13:44:46;15.75;;;3.65;;
32295;SDS011;18781;51.550;5.418;2023-05-29T13:47:12;21.88;;;4.05;;
32295;SDS011;18781;51.550;5.418;2023-05-29T13:49:38;17.35;;;4.10;;
32295;SDS011;18781;51.550;5.418;2023-05-29T13:52:04;14.63;;;3.92;;
32295;SDS011;18781;51.550;5.418;2023-05-29T13:54:30;15.43;;;3.80;;
32295;SDS011;18781;51.550;5.418;2023-05-29T13:57:00;14.63;;;3.35;;
32295;SDS011;18781;51.550;5.418;2023-05-29T13:59:32;17.33;;;3.28;;
32295;SDS011;18781;51.550;5.418;2023-05-29T14:01:59;18.25;;;4.30;;
32295;SDS011;18781;51.550;5.418;2023-05-29T14:04:25;17.15;;;4.00;;
32295;SDS011;18781;51.550;5.418;2023-05-29T14:06:51;20.63;;;4.70;;
32295;SDS011;18781;51.550;5.418;2023-05-29T14:09:17;16.15;;;4.18;;
32295;SDS011;18781;51.550;5.418;2023-05-29T14:11:51;24.15;;;4.18;;
32295;SDS011;18781;51.550;5.418;2023-05-29T14:14:17;20.33;;;4.53;;
32295;SDS011;18781;51.550;5.418;2023-05-29T14:16:43;21.45;;;4.60;;
32295;SDS011;18781;51.550;5.418;2023-05-29T14:19:08;22.45;;;4.40;;
32295;SDS011;18781;51.550;5.418;2023-05-29T14:21:34;17.58;;;4.68;;
32295;SDS011;18781;51.550;5.418;2023-05-29T14:24:00;21.38;;;4.57;;
32295;SDS011;18781;51.550;5.418;2023-05-29T14:26:26;21.25;;;5.07;;
32295;SDS011;18781;51.550;5.418;2023-05-29T14:28:52;17.45;;;4.20;;
32295;SDS011;18781;51.550;5.418;2023-05-29T14:31:17;19.48;;;4.75;;
32295;SDS011;18781;51.550;5.418;2023-05-29T14:33:43;20.60;;;4.40;;
32295;SDS011;18781;51.550;5.418;2023-05-29T14:36:08;27.77;;;4.93;;
32295;SDS011;18781;51.550;5.418;2023-05-29T14:38:34;18.95;;;4.45;;
32295;SDS011;18781;51.550;5.418;2023-05-29T14:41:01;22.05;;;4.68;;
32295;SDS011;18781;51.550;5.418;2023-05-29T14:43:27;15.98;;;5.45;;
32295;SDS011;18781;51.550;5.418;2023-05-29T14:45:52;23.75;;;8.15;;
32295;SDS011;18781;51.550;5.418;2023-05-29T14:48:18;21.13;;;4.82;;
32295;SDS011;18781;51.550;5.418;2023-05-29T14:50:43;17.58;;;4.50;;
32295;SDS011;18781;51.550;5.418;2023-05-29T14:53:09;20.98;;;4.35;;
32295;SDS011;18781;51.550;5.418;2023-05-29T14:55:34;23.75;;;4.40;;
32295;SDS011;18781;51.550;5.418;2023-05-29T14:58:03;18.25;;;4.47;;
32295;SDS011;18781;51.550;5.418;2023-05-29T15:00:30;20.38;;;4.65;;
32295;SDS011;18781;51.550;5.418;2023-05-29T15:02:56;20.90;;;4.32;;